Time,TemperatureF,DewpointF,PressureIn,WindDirection,WindDirectionDegrees,WindSpeedMPH,WindSpeedGustMPH,Humidity,HourlyPrecipIn,Conditions,Clouds,dailyrainin,SolarRadiationWatts/m^2,SoftwareType,DateUTC
2013-08-06 00:51:00,58.0,58.0,-100.00,NNE,23,4.0,5.0,100,0.00,,,0.01,0.000000,,2013-08-06 05:51:00,
2013-08-06 01:51:00,57.0,57.0,-100.00,NNE,14,2.0,3.0,100,0.00,,,0.00,0.000000,,2013-08-06 06:51:00,
2013-08-06 02:12:00,57.0,57.0,-100.00,NNE,14,2.0,3.0,100,0.00,,,0.00,0.000000,,2013-08-06 07:12:00,
2013-08-06 02:22:00,57.0,57.0,-100.00,NNE,14,2.0,3.0,100,0.00,,,0.00,0.000000,,2013-08-06 07:22:00,
2013-08-06 02:32:00,57.0,57.0,-100.00,NNE,14,2.0,3.0,100,0.00,,,0.00,0.000000,,2013-08-06 07:32:00,
2013-08-06 02:43:00,57.0,57.0,-100.00,NNE,14,2.0,3.0,100,0.00,,,0.00,0.000000,,2013-08-06 07:43:00,
2013-08-06 02:51:00,59.0,59.0,-100.00,South,172,2.0,4.0,100,0.00,,,0.00,0.000000,,2013-08-06 07:51:00,
2013-08-06 03:22:00,59.0,59.0,-100.00,South,172,2.0,4.0,100,0.00,,,0.00,0.000000,,2013-08-06 08:22:00,
2013-08-06 03:33:00,59.0,59.0,-100.00,South,172,2.0,4.0,100,0.00,,,0.00,0.000000,,2013-08-06 08:33:00,
2013-08-06 03:43:00,59.0,59.0,-100.00,South,172,2.0,4.0,100,0.00,,,0.00,0.000000,,2013-08-06 08:43:00,
2013-08-06 03:51:00,57.0,57.0,-100.00,ENE,58,4.0,5.0,100,0.00,,,0.00,0.000000,,2013-08-06 08:51:00,
2013-08-06 04:11:00,57.0,57.0,-100.00,ENE,58,4.0,5.0,100,0.00,,,0.00,0.000000,,2013-08-06 09:11:00,
2013-08-06 04:22:00,57.0,57.0,-100.00,ENE,58,4.0,5.0,100,0.00,,,0.00,0.000000,,2013-08-06 09:22:00,
2013-08-06 04:32:00,57.0,57.0,-100.00,ENE,58,4.0,5.0,100,0.00,,,0.00,0.000000,,2013-08-06 09:32:00,
2013-08-06 04:43:00,57.0,57.0,-100.00,ENE,58,4.0,5.0,100,0.00,,,0.00,0.000000,,2013-08-06 09:43:00,
2013-08-06 04:51:00,60.0,60.0,-100.00,SSE,162,3.0,6.0,100,0.00,,,0.00,0.000000,,2013-08-06 09:51:00,
2013-08-06 05:11:00,60.0,60.0,-100.00,SSE,162,3.0,6.0,100,0.00,,,0.00,0.000000,,2013-08-06 10:11:00,
2013-08-06 05:22:00,60.0,60.0,-100.00,SSE,162,3.0,6.0,100,0.00,,,0.00,0.000000,,2013-08-06 10:22:00,
2013-08-06 05:32:00,60.0,60.0,-100.00,SSE,162,3.0,6.0,100,0.00,,,0.00,0.000000,,2013-08-06 10:32:00,
2013-08-06 05:43:00,60.0,60.0,-100.00,SSE,162,3.0,6.0,100,0.00,,,0.00,0.000000,,2013-08-06 10:43:00,
2013-08-06 05:51:00,60.0,60.0,-100.00,East,98,5.0,7.0,100,0.00,,,0.00,0.000000,,2013-08-06 10:51:00,
2013-08-06 06:11:00,60.0,60.0,-100.00,East,98,5.0,7.0,100,0.00,,,0.00,0.000000,,2013-08-06 11:11:00,
2013-08-06 06:22:00,60.0,60.0,-100.00,East,98,5.0,7.0,100,0.00,,,0.00,0.000000,,2013-08-06 11:22:00,
2013-08-06 06:32:00,60.0,60.0,-100.00,East,98,5.0,7.0,100,0.00,,,0.00,0.000000,,2013-08-06 11:32:00,
2013-08-06 06:43:00,60.0,60.0,-100.00,East,98,5.0,7.0,100,0.00,,,0.00,0.000000,,2013-08-06 11:43:00,
2013-08-06 06:51:00,62.0,61.0,-100.00,ESE,111,5.0,10.0,98,0.00,,,0.00,6.000000,,2013-08-06 11:51:00,
2013-08-06 07:11:00,62.0,61.0,-100.00,ESE,111,5.0,10.0,98,0.00,,,0.00,6.000000,,2013-08-06 12:11:00,
2013-08-06 07:22:00,62.0,61.0,-100.00,ESE,111,5.0,10.0,98,0.00,,,0.00,6.000000,,2013-08-06 12:22:00,
2013-08-06 07:32:00,62.0,61.0,-100.00,ESE,111,5.0,10.0,98,0.00,,,0.00,6.000000,,2013-08-06 12:32:00,
2013-08-06 07:43:00,62.0,61.0,-100.00,ESE,111,5.0,10.0,98,0.00,,,0.00,6.000000,,2013-08-06 12:43:00,
2013-08-06 07:51:00,63.0,62.0,-100.00,SSE,158,4.0,8.0,98,0.00,,,0.00,50.000000,,2013-08-06 12:51:00,
2013-08-06 08:11:00,63.0,62.0,-100.00,SSE,158,4.0,8.0,98,0.00,,,0.00,50.000000,,2013-08-06 13:11:00,
2013-08-06 08:22:00,63.0,62.0,-100.00,SSE,158,4.0,8.0,98,0.00,,,0.00,50.000000,,2013-08-06 13:22:00,
2013-08-06 08:32:00,63.0,62.0,-100.00,SSE,158,4.0,8.0,98,0.00,,,0.00,50.000000,,2013-08-06 13:32:00,
2013-08-06 08:42:00,63.0,62.0,-100.00,SSE,158,4.0,8.0,98,0.00,,,0.00,50.000000,,2013-08-06 13:42:00,
2013-08-06 08:51:00,66.0,63.0,-100.00,SE,143,3.0,7.0,90,0.00,,,0.00,154.000000,,2013-08-06 13:51:00,
2013-08-06 09:11:00,66.0,63.0,-100.00,SE,143,3.0,7.0,90,0.00,,,0.00,154.000000,,2013-08-06 14:11:00,
2013-08-06 09:22:00,66.0,63.0,-100.00,SE,143,3.0,7.0,90,0.00,,,0.00,154.000000,,2013-08-06 14:22:00,
2013-08-06 09:32:00,66.0,63.0,-100.00,SE,143,3.0,7.0,90,0.00,,,0.00,154.000000,,2013-08-06 14:32:00,
2013-08-06 09:42:00,66.0,63.0,-100.00,SE,143,3.0,7.0,90,0.00,,,0.00,154.000000,,2013-08-06 14:42:00,
2013-08-06 09:51:00,71.0,66.0,-100.00,South,174,5.0,7.0,83,0.00,,,0.00,460.000000,,2013-08-06 14:51:00,
2013-08-06 10:11:00,71.0,66.0,-100.00,South,174,5.0,7.0,83,0.00,,,0.00,460.000000,,2013-08-06 15:11:00,
2013-08-06 10:22:00,71.0,66.0,-100.00,South,174,5.0,7.0,83,0.00,,,0.00,460.000000,,2013-08-06 15:22:00,
2013-08-06 10:33:00,71.0,66.0,-100.00,South,174,5.0,7.0,83,0.00,,,0.00,460.000000,,2013-08-06 15:33:00,
2013-08-06 10:44:00,71.0,66.0,-100.00,South,174,5.0,7.0,83,0.00,,,0.00,460.000000,,2013-08-06 15:44:00,
2013-08-06 10:51:00,77.0,65.0,-100.00,West,259,7.0,11.0,67,0.00,,,0.00,676.000000,,2013-08-06 15:51:00,
2013-08-06 11:22:00,77.0,65.0,-100.00,West,259,7.0,11.0,67,0.00,,,0.00,676.000000,,2013-08-06 16:22:00,
2013-08-06 11:32:00,77.0,65.0,-100.00,West,259,7.0,11.0,67,0.00,,,0.00,676.000000,,2013-08-06 16:32:00,
2013-08-06 11:43:00,77.0,65.0,-100.00,West,259,7.0,11.0,67,0.00,,,0.00,676.000000,,2013-08-06 16:43:00,
2013-08-06 11:51:00,80.0,62.0,-100.00,WNW,282,10.0,16.0,55,0.00,,,0.00,804.000000,,2013-08-06 16:51:00,
2013-08-06 12:11:00,80.0,62.0,-100.00,WNW,282,10.0,16.0,55,0.00,,,0.00,804.000000,,2013-08-06 17:11:00,
2013-08-06 12:21:00,80.0,62.0,-100.00,WNW,282,10.0,16.0,55,0.00,,,0.00,804.000000,,2013-08-06 17:21:00,
2013-08-06 12:32:00,80.0,62.0,-100.00,WNW,282,10.0,16.0,55,0.00,,,0.00,804.000000,,2013-08-06 17:32:00,
2013-08-06 12:44:00,80.0,62.0,-100.00,WNW,282,10.0,16.0,55,0.00,,,0.00,804.000000,,2013-08-06 17:44:00,
2013-08-06 12:51:00,83.0,66.0,-100.00,West,263,11.0,19.0,56,0.00,,,0.00,898.000000,,2013-08-06 17:51:00,
2013-08-06 13:11:00,83.0,66.0,-100.00,West,263,11.0,19.0,56,0.00,,,0.00,898.000000,,2013-08-06 18:11:00,
2013-08-06 13:22:00,83.0,66.0,-100.00,West,263,11.0,19.0,56,0.00,,,0.00,898.000000,,2013-08-06 18:22:00,
2013-08-06 13:32:00,83.0,66.0,-100.00,West,263,11.0,19.0,56,0.00,,,0.00,898.000000,,2013-08-06 18:32:00,
2013-08-06 13:43:00,83.0,66.0,-100.00,West,263,11.0,19.0,56,0.00,,,0.00,898.000000,,2013-08-06 18:43:00,
2013-08-06 13:51:00,83.0,66.0,-100.00,West,277,11.0,18.0,57,0.00,,,0.00,892.000000,,2013-08-06 18:51:00,
2013-08-06 14:11:00,83.0,66.0,-100.00,West,277,11.0,18.0,57,0.00,,,0.00,892.000000,,2013-08-06 19:11:00,
2013-08-06 14:21:00,83.0,66.0,-100.00,West,277,11.0,18.0,57,0.00,,,0.00,892.000000,,2013-08-06 19:21:00,
2013-08-06 14:32:00,83.0,66.0,-100.00,West,277,11.0,18.0,57,0.00,,,0.00,892.000000,,2013-08-06 19:32:00,
2013-08-06 14:42:00,83.0,66.0,-100.00,West,277,11.0,18.0,57,0.00,,,0.00,892.000000,,2013-08-06 19:42:00,
2013-08-06 14:51:00,84.0,67.0,-100.00,WSW,247,7.0,17.0,56,0.00,,,0.00,738.000000,,2013-08-06 19:51:00,
2013-08-06 15:11:00,84.0,67.0,-100.00,WSW,247,7.0,17.0,56,0.00,,,0.00,738.000000,,2013-08-06 20:11:00,
2013-08-06 15:22:00,84.0,67.0,-100.00,WSW,247,7.0,17.0,56,0.00,,,0.00,738.000000,,2013-08-06 20:22:00,
2013-08-06 15:32:00,84.0,67.0,-100.00,WSW,247,7.0,17.0,56,0.00,,,0.00,738.000000,,2013-08-06 20:32:00,
2013-08-06 15:44:00,84.0,67.0,-100.00,WSW,247,7.0,17.0,56,0.00,,,0.00,738.000000,,2013-08-06 20:44:00,
2013-08-06 15:51:00,84.0,66.0,-100.00,WSW,248,12.0,18.0,55,0.00,,,0.00,695.000000,,2013-08-06 20:51:00,
2013-08-06 16:11:00,84.0,66.0,-100.00,WSW,248,12.0,18.0,55,0.00,,,0.00,695.000000,,2013-08-06 21:11:00,
2013-08-06 16:22:00,84.0,66.0,-100.00,WSW,248,12.0,18.0,55,0.00,,,0.00,695.000000,,2013-08-06 21:22:00,
2013-08-06 16:32:00,84.0,66.0,-100.00,WSW,248,12.0,18.0,55,0.00,,,0.00,695.000000,,2013-08-06 21:32:00,
2013-08-06 16:43:00,84.0,66.0,-100.00,WSW,248,12.0,18.0,55,0.00,,,0.00,695.000000,,2013-08-06 21:43:00,
2013-08-06 16:51:00,84.0,66.0,-100.00,WSW,248,13.0,19.0,55,0.00,,,0.00,574.000000,,2013-08-06 21:51:00,
2013-08-06 17:11:00,84.0,66.0,-100.00,WSW,248,13.0,19.0,55,0.00,,,0.00,574.000000,,2013-08-06 22:11:00,
2013-08-06 17:22:00,84.0,66.0,-100.00,WSW,248,13.0,19.0,55,0.00,,,0.00,574.000000,,2013-08-06 22:22:00,
2013-08-06 17:32:00,84.0,66.0,-100.00,WSW,248,13.0,19.0,55,0.00,,,0.00,574.000000,,2013-08-06 22:32:00,
2013-08-06 17:43:00,84.0,66.0,-100.00,WSW,248,13.0,19.0,55,0.00,,,0.00,574.000000,,2013-08-06 22:43:00,
2013-08-06 17:51:00,84.0,67.0,-100.00,WSW,249,13.0,21.0,57,0.00,,,0.00,532.000000,,2013-08-06 22:51:00,
2013-08-06 18:11:00,84.0,67.0,-100.00,WSW,249,13.0,21.0,57,0.00,,,0.00,532.000000,,2013-08-06 23:11:00,
2013-08-06 18:22:00,84.0,67.0,-100.00,WSW,249,13.0,21.0,57,0.00,,,0.00,532.000000,,2013-08-06 23:22:00,
2013-08-06 18:32:00,84.0,67.0,-100.00,WSW,249,13.0,21.0,57,0.00,,,0.00,532.000000,,2013-08-06 23:32:00,
2013-08-06 18:43:00,84.0,67.0,-100.00,WSW,249,13.0,21.0,57,0.00,,,0.00,532.000000,,2013-08-06 23:43:00,
2013-08-06 18:51:00,81.0,61.0,-100.00,WNW,291,17.0,39.0,51,0.00,,,0.00,350.000000,,2013-08-06 23:51:00,
2013-08-06 19:11:00,81.0,61.0,-100.00,WNW,291,17.0,39.0,51,0.00,,,0.00,350.000000,,2013-08-07 00:11:00,
2013-08-06 19:21:00,81.0,61.0,-100.00,WNW,291,17.0,39.0,51,0.00,,,0.00,350.000000,,2013-08-07 00:21:00,
2013-08-06 19:32:00,81.0,61.0,-100.00,WNW,291,17.0,39.0,51,0.00,,,0.00,350.000000,,2013-08-07 00:32:00,
2013-08-06 19:43:00,81.0,61.0,-100.00,WNW,291,17.0,39.0,51,0.00,,,0.00,350.000000,,2013-08-07 00:43:00,
2013-08-06 19:51:00,69.0,59.0,-100.00,NNW,344,12.0,37.0,71,0.00,,,0.00,177.000000,,2013-08-07 00:51:00,
2013-08-06 20:11:00,69.0,59.0,-100.00,NNW,344,12.0,37.0,71,0.00,,,0.00,177.000000,,2013-08-07 01:11:00,
2013-08-06 20:22:00,69.0,59.0,-100.00,NNW,344,12.0,37.0,71,0.00,,,0.00,177.000000,,2013-08-07 01:22:00,
2013-08-06 20:32:00,69.0,59.0,-100.00,NNW,344,12.0,37.0,71,0.00,,,0.00,177.000000,,2013-08-07 01:32:00,
2013-08-06 20:43:00,69.0,59.0,-100.00,NNW,344,12.0,37.0,71,0.00,,,0.00,177.000000,,2013-08-07 01:43:00,
2013-08-06 20:51:00,65.0,62.0,-100.00,WNW,301,5.0,14.0,91,0.00,,,0.00,44.000000,,2013-08-07 01:51:00,
2013-08-06 21:11:00,65.0,62.0,-100.00,WNW,301,5.0,14.0,91,0.00,,,0.00,44.000000,,2013-08-07 02:11:00,
2013-08-06 21:22:00,65.0,62.0,-100.00,WNW,301,5.0,14.0,91,0.00,,,0.00,44.000000,,2013-08-07 02:22:00,
2013-08-06 21:33:00,65.0,62.0,-100.00,WNW,301,5.0,14.0,91,0.00,,,0.00,44.000000,,2013-08-07 02:33:00,
2013-08-06 21:43:00,65.0,62.0,-100.00,WNW,301,5.0,14.0,91,0.00,,,0.00,44.000000,,2013-08-07 02:43:00,
2013-08-06 21:51:00,65.0,63.0,-100.00,NNW,337,8.0,11.0,93,0.00,,,0.00,0.000000,,2013-08-07 02:51:00,
2013-08-06 22:11:00,65.0,63.0,-100.00,NNW,337,8.0,11.0,93,0.00,,,0.00,0.000000,,2013-08-07 03:11:00,
2013-08-06 22:22:00,65.0,63.0,-100.00,NNW,337,8.0,11.0,93,0.00,,,0.00,0.000000,,2013-08-07 03:22:00,
2013-08-06 22:32:00,65.0,63.0,-100.00,NNW,337,8.0,11.0,93,0.00,,,0.00,0.000000,,2013-08-07 03:32:00,
2013-08-06 22:43:00,65.0,63.0,-100.00,NNW,337,8.0,11.0,93,0.00,,,0.00,0.000000,,2013-08-07 03:43:00,
2013-08-06 22:51:00,64.0,62.0,-100.00,NNW,334,9.0,13.0,93,0.00,,,0.00,0.000000,,2013-08-07 03:51:00,
2013-08-06 23:11:00,64.0,62.0,-100.00,NNW,334,9.0,13.0,93,0.00,,,0.00,0.000000,,2013-08-07 04:11:00,
2013-08-06 23:21:00,64.0,62.0,-100.00,NNW,334,9.0,13.0,93,0.00,,,0.00,0.000000,,2013-08-07 04:21:00,
2013-08-06 23:33:00,64.0,62.0,-100.00,NNW,334,9.0,13.0,93,0.00,,,0.00,0.000000,,2013-08-07 04:33:00,
2013-08-06 23:43:00,64.0,62.0,-100.00,NNW,334,9.0,13.0,93,0.00,,,0.00,0.000000,,2013-08-07 04:43:00,
2013-08-06 23:51:00,65.0,62.0,-100.00,NNW,344,9.0,18.0,91,0.00,,,0.00,0.000000,,2013-08-07 04:51:00,